sensor_id;sensor_type;location;lat;lon;timestamp;pressure;altitude;pressure_sealevel;temperature;humidity
58343;BME280;44150;42.602;23.398;2024-02-28T00:01:01;93954.44;;;37.46;54.01
58343;BME280;44150;42.602;23.398;2024-02-28T00:03:27;93956.16;;;37.42;54.11
58343;BME280;44150;42.602;23.398;2024-02-28T00:05:52;93957.13;;;37.46;53.66
58343;BME280;44150;42.602;23.398;2024-02-28T00:08:18;93961.25;;;37.44;54.11
58343;BME280;44150;42.602;23.398;2024-02-28T00:10:45;93969.38;;;37.44;54.59
58343;BME280;44150;42.602;23.398;2024-02-28T00:13:10;93966.34;;;37.45;54.51
58343;BME280;44150;42.602;23.398;2024-02-28T00:15:36;93969.53;;;37.47;54.08
58343;BME280;44150;42.602;23.398;2024-02-28T00:18:01;93964.75;;;37.44;54.12
58343;BME280;44150;42.602;23.398;2024-02-28T00:20:28;93974.44;;;37.45;54.09
58343;BME280;44150;42.602;23.398;2024-02-28T00:22:54;93978.56;;;37.43;54.55
58343;BME280;44150;42.602;23.398;2024-02-28T00:25:20;93970.72;;;37.55;54.44
58343;BME280;44150;42.602;23.398;2024-02-28T00:27:45;93962.53;;;37.46;54.90
58343;BME280;44150;42.602;23.398;2024-02-28T00:30:11;93958.38;;;37.40;54.71
58343;BME280;44150;42.602;23.398;2024-02-28T00:32:36;93967.28;;;37.41;55.19
58343;BME280;44150;42.602;23.398;2024-02-28T00:35:02;93970.16;;;37.44;55.52
58343;BME280;44150;42.602;23.398;2024-02-28T00:37:28;93963.97;;;37.44;55.05
58343;BME280;44150;42.602;23.398;2024-02-28T00:39:53;93969.84;;;37.46;55.28
58343;BME280;44150;42.602;23.398;2024-02-28T00:42:19;93960.75;;;37.42;55.34
58343;BME280;44150;42.602;23.398;2024-02-28T00:44:44;93952.84;;;37.45;54.82
58343;BME280;44150;42.602;23.398;2024-02-28T00:47:09;93951.09;;;37.41;55.44
58343;BME280;44150;42.602;23.398;2024-02-28T00:49:35;93957.75;;;37.43;55.50
58343;BME280;44150;42.602;23.398;2024-02-28T00:52:00;93951.25;;;37.44;54.92
58343;BME280;44150;42.602;23.398;2024-02-28T00:54:26;93960.16;;;37.45;54.44
58343;BME280;44150;42.602;23.398;2024-02-28T00:56:51;93955.22;;;37.47;55.30
58343;BME280;44150;42.602;23.398;2024-02-28T00:59:17;93959.44;;;37.53;55.30
58343;BME280;44150;42.602;23.398;2024-02-28T01:01:42;93960.63;;;37.47;54.96
58343;BME280;44150;42.602;23.398;2024-02-28T01:04:08;93959.38;;;37.44;55.36
58343;BME280;44150;42.602;23.398;2024-02-28T01:06:33;93963.34;;;37.47;55.18
58343;BME280;44150;42.602;23.398;2024-02-28T01:08:59;93958.72;;;37.47;55.02
58343;BME280;44150;42.602;23.398;2024-02-28T01:11:24;93960.63;;;37.47;54.91
58343;BME280;44150;42.602;23.398;2024-02-28T01:13:50;93963.16;;;37.43;55.41
58343;BME280;44150;42.602;23.398;2024-02-28T01:16:16;93955.88;;;37.44;55.11
58343;BME280;44150;42.602;23.398;2024-02-28T01:18:42;93960.63;;;37.47;55.20
58343;BME280;44150;42.602;23.398;2024-02-28T01:21:07;93965.56;;;37.45;54.95
58343;BME280;44150;42.602;23.398;2024-02-28T01:23:32;93967.47;;;37.44;54.51
58343;BME280;44150;42.602;23.398;2024-02-28T01:25:58;93963.50;;;37.50;54.77
58343;BME280;44150;42.602;23.398;2024-02-28T01:28:23;93971.44;;;37.47;54.73
58343;BME280;44150;42.602;23.398;2024-02-28T01:30:49;93977.47;;;37.44;54.97
58343;BME280;44150;42.602;23.398;2024-02-28T01:33:14;93968.41;;;37.40;55.41
58343;BME280;44150;42.602;23.398;2024-02-28T01:35:40;93971.91;;;37.40;54.46
58343;BME280;44150;42.602;23.398;2024-02-28T01:38:05;93976.66;;;37.43;55.17
58343;BME280;44150;42.602;23.398;2024-02-28T01:40:30;93977.13;;;37.45;55.02
58343;BME280;44150;42.602;23.398;2024-02-28T01:43:02;93975.44;;;37.49;54.81
58343;BME280;44150;42.602;23.398;2024-02-28T01:45:28;93979.38;;;37.43;55.27
58343;BME280;44150;42.602;23.398;2024-02-28T01:47:54;93979.72;;;37.50;55.37
58343;BME280;44150;42.602;23.398;2024-02-28T01:50:20;93970.63;;;37.46;54.99
58343;BME280;44150;42.602;23.398;2024-02-28T01:52:45;93982.25;;;37.47;55.22
58343;BME280;44150;42.602;23.398;2024-02-28T01:55:11;93983.16;;;37.42;55.27
58343;BME280;44150;42.602;23.398;2024-02-28T01:57:36;93980.16;;;37.44;55.27
58343;BME280;44150;42.602;23.398;2024-02-28T02:00:03;93980.16;;;37.44;54.88
58343;BME280;44150;42.602;23.398;2024-02-28T02:02:29;93977.47;;;37.44;55.11
58343;BME280;44150;42.602;23.398;2024-02-28T02:04:54;93979.84;;;37.45;55.05
58343;BME280;44150;42.602;23.398;2024-02-28T02:07:23;93983.34;;;37.46;55.32
58343;BME280;44150;42.602;23.398;2024-02-28T02:09:48;93988.25;;;37.44;54.84
58343;BME280;44150;42.602;23.398;2024-02-28T02:12:15;93980.41;;;37.56;55.20
58343;BME280;44150;42.602;23.398;2024-02-28T02:14:41;93993.34;;;37.45;55.03
58343;BME280;44150;42.602;23.398;2024-02-28T02:17:07;93984.94;;;37.47;55.01
58343;BME280;44150;42.602;23.398;2024-02-28T02:19:32;93984.13;;;37.46;55.37
58343;BME280;44150;42.602;23.398;2024-02-28T02:21:58;93984.47;;;37.45;55.41
58343;BME280;44150;42.602;23.398;2024-02-28T02:24:24;93983.34;;;37.46;54.99
58343;BME280;44150;42.602;23.398;2024-02-28T02:26:56;93981.84;;;37.53;54.52
58343;BME280;44150;42.602;23.398;2024-02-28T02:29:22;93981.94;;;37.48;54.76
58343;BME280;44150;42.602;23.398;2024-02-28T02:31:47;93979.38;;;37.43;55.55
58343;BME280;44150;42.602;23.398;2024-02-28T02:34:12;93983.78;;;37.39;55.13
58343;BME280;44150;42.602;23.398;2024-02-28T02:36:38;93979.38;;;37.43;55.47
58343;BME280;44150;42.602;23.398;2024-02-28T02:39:03;93971.25;;;37.43;55.45
58343;BME280;44150;42.602;23.398;2024-02-28T02:41:29;93987.47;;;37.43;55.18
58343;BME280;44150;42.602;23.398;2024-02-28T02:43:54;93986.03;;;37.46;55.09
58343;BME280;44150;42.602;23.398;2024-02-28T02:46:19;93984.13;;;37.46;55.50
58343;BME280;44150;42.602;23.398;2024-02-28T02:48:45;93983.41;;;37.54;54.89
58343;BME280;44150;42.602;23.398;2024-02-28T02:51:10;93976.38;;;37.45;55.55
58343;BME280;44150;42.602;23.398;2024-02-28T02:53:35;93979.38;;;37.43;55.27
58343;BME280;44150;42.602;23.398;2024-02-28T02:56:03;93978.75;;;37.46;55.03
58343;BME280;44150;42.602;23.398;2024-02-28T02:58:29;93979.38;;;37.43;55.45
58343;BME280;44150;42.602;23.398;2024-02-28T03:00:55;93979.06;;;37.45;55.15
58343;BME280;44150;42.602;23.398;2024-02-28T03:03:20;93980.34;;;37.47;54.95
58343;BME280;44150;42.602;23.398;2024-02-28T03:05:45;93970.97;;;37.45;55.36
58343;BME280;44150;42.602;23.398;2024-02-28T03:08:11;93970.16;;;37.44;55.06
58343;BME280;44150;42.602;23.398;2024-02-28T03:10:36;93977.13;;;37.45;54.23
58343;BME280;44150;42.602;23.398;2024-02-28T03:13:01;93982.88;;;37.44;54.96
58343;BME280;44150;42.602;23.398;2024-02-28T03:15:27;93979.06;;;37.45;54.98
58343;BME280;44150;42.602;23.398;2024-02-28T03:17:52;93987.53;;;37.52;55.10
58343;BME280;44150;42.602;23.398;2024-02-28T03:20:18;93981.44;;;37.46;55.80
58343;BME280;44150;42.602;23.398;2024-02-28T03:22:43;93982.25;;;37.47;55.13
58343;BME280;44150;42.602;23.398;2024-02-28T03:25:09;93981.94;;;37.48;55.08
58343;BME280;44150;42.602;23.398;2024-02-28T03:27:34;93989.00;;;37.58;55.20
58343;BME280;44150;42.602;23.398;2024-02-28T03:30:00;93991.13;;;37.47;55.11
58343;BME280;44150;42.602;23.398;2024-02-28T03:32:25;93985.56;;;37.44;55.16
58343;BME280;44150;42.602;23.398;2024-02-28T03:34:50;93992.06;;;37.43;55.06
58343;BME280;44150;42.602;23.398;2024-02-28T03:37:16;93985.09;;;37.50;55.58
58343;BME280;44150;42.602;23.398;2024-02-28T03:39:41;93990.16;;;37.43;55.40
58343;BME280;44150;42.602;23.398;2024-02-28T03:42:07;93995.56;;;37.43;55.11
58343;BME280;44150;42.602;23.398;2024-02-28T03:44:32;94001.13;;;37.47;55.36
58343;BME280;44150;42.602;23.398;2024-02-28T03:46:58;93994.94;;;37.46;55.49
58343;BME280;44150;42.602;23.398;2024-02-28T03:49:23;93995.91;;;37.50;55.56
58343;BME280;44150;42.602;23.398;2024-02-28T03:51:48;93999.88;;;37.44;55.09
58343;BME280;44150;42.602;23.398;2024-02-28T03:54:14;93992.66;;;37.53;54.79
58343;BME280;44150;42.602;23.398;2024-02-28T03:56:40;93990.34;;;37.47;55.42
58343;BME280;44150;42.602;23.398;2024-02-28T03:59:05;93997.25;;;37.53;55.35
58343;BME280;44150;42.602;23.398;2024-02-28T04:01:30;93997.63;;;37.46;55.81
58343;BME280;44150;42.602;23.398;2024-02-28T04:03:56;93997.16;;;37.44;55.83
58343;BME280;44150;42.602;23.398;2024-02-28T04:06:21;93994.94;;;37.46;55.76
58343;BME280;44150;42.602;23.398;2024-02-28T04:08:47;93989.94;;;37.53;55.12
58343;BME280;44150;42.602;23.398;2024-02-28T04:11:12;93986.84;;;37.46;55.37
58343;BME280;44150;42.602;23.398;2024-02-28T04:13:37;93979.06;;;37.45;55.38
58343;BME280;44150;42.602;23.398;2024-02-28T04:16:03;93992.56;;;37.45;55.27
58343;BME280;44150;42.602;23.398;2024-02-28T04:18:29;93987.75;;;37.42;55.20
58343;BME280;44150;42.602;23.398;2024-02-28T04:20:55;93982.41;;;37.50;54.83
58343;BME280;44150;42.602;23.398;2024-02-28T04:23:20;93981.75;;;37.45;55.26
58343;BME280;44150;42.602;23.398;2024-02-28T04:25:46;93982.53;;;37.45;54.97
58343;BME280;44150;42.602;23.398;2024-02-28T04:28:11;93982.19;;;37.60;55.00
58343;BME280;44150;42.602;23.398;2024-02-28T04:30:37;93984.03;;;37.51;55.43
58343;BME280;44150;42.602;23.398;2024-02-28T04:33:02;93982.88;;;37.44;55.02
58343;BME280;44150;42.602;23.398;2024-02-28T04:35:28;93988.13;;;37.49;54.97
58343;BME280;44150;42.602;23.398;2024-02-28T04:37:53;93991.59;;;37.41;54.87
58343;BME280;44150;42.602;23.398;2024-02-28T04:40:18;93993.16;;;37.42;54.58
58343;BME280;44150;42.602;23.398;2024-02-28T04:42:44;93994.28;;;37.41;54.55
58343;BME280;44150;42.602;23.398;2024-02-28T04:45:09;93990.50;;;37.50;54.14
58343;BME280;44150;42.602;23.398;2024-02-28T04:47:36;93991.44;;;37.46;54.86
58343;BME280;44150;42.602;23.398;2024-02-28T04:50:02;93989.38;;;37.43;54.69
58343;BME280;44150;42.602;23.398;2024-02-28T04:52:30;93988.75;;;37.46;54.39
58343;BME280;44150;42.602;23.398;2024-02-28T04:54:56;93985.75;;;37.47;54.58
58343;BME280;44150;42.602;23.398;2024-02-28T04:57:21;93996.63;;;37.56;54.59
58343;BME280;44150;42.602;23.398;2024-02-28T04:59:47;93987.63;;;37.47;55.13
58343;BME280;44150;42.602;23.398;2024-02-28T05:02:12;93997.16;;;37.44;54.92
58343;BME280;44150;42.602;23.398;2024-02-28T05:04:38;93996.53;;;37.47;54.31
58343;BME280;44150;42.602;23.398;2024-02-28T05:07:03;94007.63;;;37.46;54.52
58343;BME280;44150;42.602;23.398;2024-02-28T05:09:29;94003.38;;;37.45;54.69
58343;BME280;44150;42.602;23.398;2024-02-28T05:11:54;94007.34;;;37.47;55.07
58343;BME280;44150;42.602;23.398;2024-02-28T05:14:20;94009.41;;;37.50;54.77
58343;BME280;44150;42.602;23.398;2024-02-28T05:16:47;94008.44;;;37.46;55.23
58343;BME280;44150;42.602;23.398;2024-02-28T05:19:12;94019.56;;;37.45;55.08
58343;BME280;44150;42.602;23.398;2024-02-28T05:21:42;94015.44;;;37.47;55.27
58343;BME280;44150;42.602;23.398;2024-02-28T05:24:08;94021.94;;;37.46;55.14
58343;BME280;44150;42.602;23.398;2024-02-28T05:26:35;94017.03;;;37.48;55.35
58343;BME280;44150;42.602;23.398;2024-02-28T05:29:01;94019.41;;;37.50;55.11
58343;BME280;44150;42.602;23.398;2024-02-28T05:31:26;94028.22;;;37.55;55.04
58343;BME280;44150;42.602;23.398;2024-02-28T05:33:54;94035.94;;;37.48;55.94
58343;BME280;44150;42.602;23.398;2024-02-28T05:36:20;94039.75;;;37.47;55.44
58343;BME280;44150;42.602;23.398;2024-02-28T05:38:46;94037.03;;;37.47;55.32
58343;BME280;44150;42.602;23.398;2024-02-28T05:41:12;94034.53;;;37.51;55.33
58343;BME280;44150;42.602;23.398;2024-02-28T05:43:38;94038.31;;;37.50;55.12
58343;BME280;44150;42.602;23.398;2024-02-28T05:46:03;94044.84;;;37.49;54.84
58343;BME280;44150;42.602;23.398;2024-02-28T05:48:29;94055.66;;;37.49;55.36
58343;BME280;44150;42.602;23.398;2024-02-28T05:50:54;94055.31;;;37.50;55.32
58343;BME280;44150;42.602;23.398;2024-02-28T05:53:20;94062.16;;;37.48;56.20
58343;BME280;44150;42.602;23.398;2024-02-28T05:55:45;94059.44;;;37.48;55.99
58343;BME280;44150;42.602;23.398;2024-02-28T05:58:11;94062.78;;;37.45;55.69
58343;BME280;44150;42.602;23.398;2024-02-28T06:00:36;94067.84;;;37.46;55.82
58343;BME280;44150;42.602;23.398;2024-02-28T06:03:02;94066.25;;;37.45;55.83
58343;BME280;44150;42.602;23.398;2024-02-28T06:05:28;94068.66;;;37.47;55.42
58343;BME280;44150;42.602;23.398;2024-02-28T06:07:53;94070.06;;;37.44;55.13
58343;BME280;44150;42.602;23.398;2024-02-28T06:10:19;94060.06;;;37.45;55.03
58343;BME280;44150;42.602;23.398;2024-02-28T06:12:46;94070.88;;;37.45;55.34
58343;BME280;44150;42.602;23.398;2024-02-28T06:15:11;94077.38;;;37.44;55.10
58343;BME280;44150;42.602;23.398;2024-02-28T06:17:36;94076.28;;;37.45;55.29
58343;BME280;44150;42.602;23.398;2024-02-28T06:20:02;94076.28;;;37.45;55.08
58343;BME280;44150;42.602;23.398;2024-02-28T06:22:28;94078.19;;;37.44;55.37
58343;BME280;44150;42.602;23.398;2024-02-28T06:24:53;94080.88;;;37.44;55.12
58343;BME280;44150;42.602;23.398;2024-02-28T06:27:18;94084.38;;;37.45;55.11
58343;BME280;44150;42.602;23.398;2024-02-28T06:29:44;94083.13;;;37.51;54.82
58343;BME280;44150;42.602;23.398;2024-02-28T06:32:09;94089.88;;;37.53;55.17
58343;BME280;44150;42.602;23.398;2024-02-28T06:34:35;94083.47;;;37.49;56.21
58343;BME280;44150;42.602;23.398;2024-02-28T06:37:00;94092.94;;;37.47;55.93
58343;BME280;44150;42.602;23.398;2024-02-28T06:39:25;94086.47;;;37.48;55.45
58343;BME280;44150;42.602;23.398;2024-02-28T06:41:51;94087.56;;;37.47;55.79
58343;BME280;44150;42.602;23.398;2024-02-28T06:44:18;94090.75;;;37.49;56.38
58343;BME280;44150;42.602;23.398;2024-02-28T06:46:44;94093.47;;;37.49;56.36
58343;BME280;44150;42.602;23.398;2024-02-28T06:49:09;94090.44;;;37.50;56.40
58343;BME280;44150;42.602;23.398;2024-02-28T06:51:35;94089.97;;;37.48;56.57
58343;BME280;44150;42.602;23.398;2024-02-28T06:54:00;94089.16;;;37.48;56.18
58343;BME280;44150;42.602;23.398;2024-02-28T06:56:25;94082.66;;;37.49;56.80
58343;BME280;44150;42.602;23.398;2024-02-28T06:58:51;94089.06;;;37.53;56.79
58343;BME280;44150;42.602;23.398;2024-02-28T07:01:17;94085.84;;;37.51;56.69
58343;BME280;44150;42.602;23.398;2024-02-28T07:03:42;94086.75;;;37.46;56.60
58343;BME280;44150;42.602;23.398;2024-02-28T07:06:08;94088.34;;;37.47;56.59
58343;BME280;44150;42.602;23.398;2024-02-28T07:08:33;94084.84;;;37.47;56.50
58343;BME280;44150;42.602;23.398;2024-02-28T07:10:59;94088.53;;;37.51;56.98
58343;BME280;44150;42.602;23.398;2024-02-28T07:13:24;94092.06;;;37.51;57.03
58343;BME280;44150;42.602;23.398;2024-02-28T07:15:50;94089.63;;;37.50;57.13
58343;BME280;44150;42.602;23.398;2024-02-28T07:18:15;94089.06;;;37.53;56.84
58343;BME280;44150;42.602;23.398;2024-02-28T07:20:41;94092.25;;;37.55;57.20
58343;BME280;44150;42.602;23.398;2024-02-28T07:23:06;94094.47;;;37.53;57.03
58343;BME280;44150;42.602;23.398;2024-02-28T07:25:32;94091.78;;;37.53;56.78
58343;BME280;44150;42.602;23.398;2024-02-28T07:27:58;94089.06;;;37.53;57.16
58343;BME280;44150;42.602;23.398;2024-02-28T07:30:27;94087.47;;;37.52;56.97
58343;BME280;44150;42.602;23.398;2024-02-28T07:32:53;94097.16;;;37.53;56.79
58343;BME280;44150;42.602;23.398;2024-02-28T07:35:19;94098.34;;;37.47;56.71
58343;BME280;44150;42.602;23.398;2024-02-28T07:37:46;94101.56;;;37.49;56.64
58343;BME280;44150;42.602;23.398;2024-02-28T07:40:12;94097.72;;;37.50;56.71
58343;BME280;44150;42.602;23.398;2024-02-28T07:42:37;94096.63;;;37.51;56.63
58343;BME280;44150;42.602;23.398;2024-02-28T07:45:03;94098.28;;;37.52;57.14
58343;BME280;44150;42.602;23.398;2024-02-28T07:47:29;94099.06;;;37.52;56.86
58343;BME280;44150;42.602;23.398;2024-02-28T07:49:54;94095.28;;;37.53;56.83
58343;BME280;44150;42.602;23.398;2024-02-28T07:52:20;94098.28;;;37.52;56.25
58343;BME280;44150;42.602;23.398;2024-02-28T07:54:45;94097.66;;;37.55;56.63
58343;BME280;44150;42.602;23.398;2024-02-28T07:57:11;94095.28;;;37.53;56.37
58343;BME280;44150;42.602;23.398;2024-02-28T07:59:44;94099.25;;;37.56;56.62
58343;BME280;44150;42.602;23.398;2024-02-28T08:02:10;94101.47;;;37.54;56.77
58343;BME280;44150;42.602;23.398;2024-02-28T08:04:39;94096.38;;;37.52;56.41
58343;BME280;44150;42.602;23.398;2024-02-28T08:07:05;94093.94;;;37.51;55.94
58343;BME280;44150;42.602;23.398;2024-02-28T08:09:31;94097.97;;;37.53;56.54
58343;BME280;44150;42.602;23.398;2024-02-28T08:11:56;94098.78;;;37.54;56.74
58343;BME280;44150;42.602;23.398;2024-02-28T08:14:23;94093.66;;;37.52;56.70
58343;BME280;44150;42.602;23.398;2024-02-28T08:16:48;94088.53;;;37.51;56.24
58343;BME280;44150;42.602;23.398;2024-02-28T08:19:14;94085.03;;;37.50;56.11
58343;BME280;44150;42.602;23.398;2024-02-28T08:21:40;94083.13;;;37.51;56.46
58343;BME280;44150;42.602;23.398;2024-02-28T08:24:06;94087.72;;;37.50;56.37
58343;BME280;44150;42.602;23.398;2024-02-28T08:26:31;94089.38;;;37.51;56.41
58343;BME280;44150;42.602;23.398;2024-02-28T08:28:57;94085.84;;;37.51;56.77
58343;BME280;44150;42.602;23.398;2024-02-28T08:31:22;94087.97;;;37.54;56.37
58343;BME280;44150;42.602;23.398;2024-02-28T08:33:48;94086.84;;;37.55;56.25
58343;BME280;44150;42.602;23.398;2024-02-28T08:36:13;94091.06;;;37.47;56.68
58343;BME280;44150;42.602;23.398;2024-02-28T08:38:40;94089.78;;;37.45;56.81
58343;BME280;44150;42.602;23.398;2024-02-28T08:41:05;94091.56;;;37.49;56.33
58343;BME280;44150;42.602;23.398;2024-02-28T08:43:33;94088.06;;;37.49;56.23
58343;BME280;44150;42.602;23.398;2024-02-28T08:45:58;94086.94;;;37.50;55.83
58343;BME280;44150;42.602;23.398;2024-02-28T08:48:23;94085.34;;;37.49;55.88
58343;BME280;44150;42.602;23.398;2024-02-28T08:50:49;94088.53;;;37.51;56.18
58343;BME280;44150;42.602;23.398;2024-02-28T08:53:14;94081.25;;;37.51;56.34
58343;BME280;44150;42.602;23.398;2024-02-28T08:55:42;94089.38;;;37.51;55.53
58343;BME280;44150;42.602;23.398;2024-02-28T08:58:07;94083.47;;;37.49;56.34
58343;BME280;44150;42.602;23.398;2024-02-28T09:00:32;94085.84;;;37.51;55.89
58343;BME280;44150;42.602;23.398;2024-02-28T09:02:58;94084.22;;;37.50;56.16
58343;BME280;44150;42.602;23.398;2024-02-28T09:05:23;94079.38;;;37.52;56.07
58343;BME280;44150;42.602;23.398;2024-02-28T09:07:49;94087.72;;;37.50;56.86
58343;BME280;44150;42.602;23.398;2024-02-28T09:10:26;94086.16;;;37.49;56.43
58343;BME280;44150;42.602;23.398;2024-02-28T09:12:51;94082.34;;;37.50;56.22
58343;BME280;44150;42.602;23.398;2024-02-28T09:15:17;94084.75;;;37.52;56.28
58343;BME280;44150;42.602;23.398;2024-02-28T09:17:43;94088.53;;;37.51;55.82
58343;BME280;44150;42.602;23.398;2024-02-28T09:20:09;94097.97;;;37.53;56.41
58343;BME280;44150;42.602;23.398;2024-02-28T09:22:34;94089.25;;;37.56;56.24
58343;BME280;44150;42.602;23.398;2024-02-28T09:25:00;94088.25;;;37.52;56.85
58343;BME280;44150;42.602;23.398;2024-02-28T09:27:29;94080.44;;;37.51;56.54
58343;BME280;44150;42.602;23.398;2024-02-28T09:29:57;94085.84;;;37.51;56.08
58343;BME280;44150;42.602;23.398;2024-02-28T09:32:22;94082.25;;;37.55;56.07
58343;BME280;44150;42.602;23.398;2024-02-28T09:34:48;94079.72;;;37.59;56.58
58343;BME280;44150;42.602;23.398;2024-02-28T09:37:14;94075.66;;;37.48;57.16
58343;BME280;44150;42.602;23.398;2024-02-28T09:39:40;94076.75;;;37.47;57.25
58343;BME280;44150;42.602;23.398;2024-02-28T09:42:06;94068.81;;;37.50;57.01
58343;BME280;44150;42.602;23.398;2024-02-28T09:44:34;94069.16;;;37.49;57.01
58343;BME280;44150;42.602;23.398;2024-02-28T09:46:59;94071.53;;;37.50;56.42
58343;BME280;44150;42.602;23.398;2024-02-28T09:49:26;94075.56;;;37.53;57.29
58343;BME280;44150;42.602;23.398;2024-02-28T09:51:52;94073.66;;;37.53;56.79
58343;BME280;44150;42.602;23.398;2024-02-28T09:54:18;94072.06;;;37.52;57.39
58343;BME280;44150;42.602;23.398;2024-02-28T09:56:44;94070.16;;;37.53;56.87
58343;BME280;44150;42.602;23.398;2024-02-28T09:59:10;94061.53;;;37.51;56.41
58343;BME280;44150;42.602;23.398;2024-02-28T10:01:42;94059.94;;;37.50;56.87
58343;BME280;44150;42.602;23.398;2024-02-28T10:04:12;94055.84;;;37.52;57.26
58343;BME280;44150;42.602;23.398;2024-02-28T10:06:40;94058.25;;;37.54;57.21
58343;BME280;44150;42.602;23.398;2024-02-28T10:09:06;94066.94;;;37.51;56.77
58343;BME280;44150;42.602;23.398;2024-02-28T10:11:32;94058.81;;;37.51;57.22
58343;BME280;44150;42.602;23.398;2024-02-28T10:13:58;94059.38;;;37.53;56.76
58343;BME280;44150;42.602;23.398;2024-02-28T10:16:24;94052.63;;;37.50;56.44
58343;BME280;44150;42.602;23.398;2024-02-28T10:18:50;94054.75;;;37.53;57.13
58343;BME280;44150;42.602;23.398;2024-02-28T10:21:15;94052.34;;;37.52;57.26
58343;BME280;44150;42.602;23.398;2024-02-28T10:23:41;94052.34;;;37.52;57.05
58343;BME280;44150;42.602;23.398;2024-02-28T10:26:10;94054.44;;;37.55;56.72
58343;BME280;44150;42.602;23.398;2024-02-28T10:28:37;94048.56;;;37.53;57.55
58343;BME280;44150;42.602;23.398;2024-02-28T10:31:04;94033.44;;;37.52;57.12
58343;BME280;44150;42.602;23.398;2024-02-28T10:36:32;94028.06;;;37.52;57.15
58343;BME280;44150;42.602;23.398;2024-02-28T10:38:58;94022.75;;;37.47;57.52
58343;BME280;44150;42.602;23.398;2024-02-28T10:41:26;94021.66;;;37.48;57.10
58343;BME280;44150;42.602;23.398;2024-02-28T10:43:52;94021.03;;;37.51;57.28
58343;BME280;44150;42.602;23.398;2024-02-28T10:46:20;94016.63;;;37.55;57.75
58343;BME280;44150;42.602;23.398;2024-02-28T10:48:45;94017.25;;;37.52;57.07
58343;BME280;44150;42.602;23.398;2024-02-28T10:51:15;94014.56;;;37.52;57.21
58343;BME280;44150;42.602;23.398;2024-02-28T10:53:41;94008.63;;;37.50;56.69
58343;BME280;44150;42.602;23.398;2024-02-28T10:56:09;94016.44;;;37.51;57.28
58343;BME280;44150;42.602;23.398;2024-02-28T10:58:36;94003.13;;;37.55;57.20
58343;BME280;44150;42.602;23.398;2024-02-28T11:01:02;94005.66;;;37.51;56.94
58343;BME280;44150;42.602;23.398;2024-02-28T11:03:28;94005.66;;;37.51;57.54
58343;BME280;44150;42.602;23.398;2024-02-28T11:05:55;93999.94;;;37.53;56.74
58343;BME280;44150;42.602;23.398;2024-02-28T11:08:22;94001.03;;;37.52;57.32
58343;BME280;44150;42.602;23.398;2024-02-28T11:10:54;93996.91;;;37.54;57.39
58343;BME280;44150;42.602;23.398;2024-02-28T11:13:24;93986.44;;;37.53;57.11
58343;BME280;44150;42.602;23.398;2024-02-28T11:15:50;93979.44;;;37.52;57.13
58343;BME280;44150;42.602;23.398;2024-02-28T11:18:15;93976.75;;;37.52;56.71
58343;BME280;44150;42.602;23.398;2024-02-28T11:20:41;93977.53;;;37.52;57.17
58343;BME280;44150;42.602;23.398;2024-02-28T11:23:08;93964.03;;;37.52;56.36
58343;BME280;44150;42.602;23.398;2024-02-28T11:25:34;93967.88;;;37.60;56.63
58343;BME280;44150;42.602;23.398;2024-02-28T11:28:00;93962.44;;;37.51;56.90
58343;BME280;44150;42.602;23.398;2024-02-28T11:30:25;93960.53;;;37.52;57.54
58343;BME280;44150;42.602;23.398;2024-02-28T11:32:54;93957.53;;;37.53;56.66
58343;BME280;44150;42.602;23.398;2024-02-28T11:35:20;93961.50;;;37.56;56.98
58343;BME280;44150;42.602;23.398;2024-02-28T11:37:46;93958.63;;;37.52;56.93
58343;BME280;44150;42.602;23.398;2024-02-28T11:40:13;93956.34;;;37.46;57.34
58343;BME280;44150;42.602;23.398;2024-02-28T11:42:38;93954.13;;;37.48;57.42
58343;BME280;44150;42.602;23.398;2024-02-28T11:45:04;93947.63;;;37.49;57.22
58343;BME280;44150;42.602;23.398;2024-02-28T11:47:31;93957.84;;;37.52;57.56
58343;BME280;44150;42.602;23.398;2024-02-28T11:49:59;93955.13;;;37.52;57.14
58343;BME280;44150;42.602;23.398;2024-02-28T11:52:25;93942.69;;;37.51;57.46
58343;BME280;44150;42.602;23.398;2024-02-28T11:54:51;93942.69;;;37.51;57.55
58343;BME280;44150;42.602;23.398;2024-02-28T11:57:16;93943.53;;;37.51;57.54
58343;BME280;44150;42.602;23.398;2024-02-28T11:59:44;93943.53;;;37.51;57.00
58343;BME280;44150;42.602;23.398;2024-02-28T12:02:13;93931.34;;;37.54;57.84
58343;BME280;44150;42.602;23.398;2024-02-28T12:04:40;93941.63;;;37.52;58.02
58343;BME280;44150;42.602;23.398;2024-02-28T12:07:08;93938.66;;;37.62;57.53
58343;BME280;44150;42.602;23.398;2024-02-28T12:09:33;93943.41;;;37.56;58.34
58343;BME280;44150;42.602;23.398;2024-02-28T12:12:02;93936.22;;;37.52;58.05
58343;BME280;44150;42.602;23.398;2024-02-28T12:14:31;93928.13;;;37.52;58.12
58343;BME280;44150;42.602;23.398;2024-02-28T12:16:58;93928.94;;;37.52;57.72
58343;BME280;44150;42.602;23.398;2024-02-28T12:19:24;93928.16;;;37.60;57.83
58343;BME280;44150;42.602;23.398;2024-02-28T12:21:49;93922.75;;;37.60;58.20
58343;BME280;44150;42.602;23.398;2024-02-28T12:24:15;93915.44;;;37.52;58.18
58343;BME280;44150;42.602;23.398;2024-02-28T12:26:40;93918.13;;;37.52;58.13
58343;BME280;44150;42.602;23.398;2024-02-28T12:29:06;93913.84;;;37.60;57.71
58343;BME280;44150;42.602;23.398;2024-02-28T12:31:32;93911.94;;;37.52;58.07
58343;BME280;44150;42.602;23.398;2024-02-28T12:33:57;93905.91;;;37.55;57.31
58343;BME280;44150;42.602;23.398;2024-02-28T12:36:24;93902.09;;;37.56;57.51
58343;BME280;44150;42.602;23.398;2024-02-28T12:38:50;93907.59;;;37.51;57.35
58343;BME280;44150;42.602;23.398;2024-02-28T12:41:16;93908.53;;;37.46;56.97
58343;BME280;44150;42.602;23.398;2024-02-28T12:43:42;93905.03;;;37.46;57.17
58343;BME280;44150;42.602;23.398;2024-02-28T12:46:07;93903.63;;;37.48;56.56